<?xml version="1.0" encoding="UTF-8" standalone="no" ?>
<gpx xmlns="http://www.topografix.com/GPX/1/1" xmlns:xsi="http://www.w3.org/2001/XMLSchema-instance" xsi:schemaLocation="http://www.topografix.com/GPX/1/1 http://www.topografix.com/GPX/1/1/gpx.xsd" version="1.1" creator="VisuGPX - https://www.visugpx.com">
  <metadata>
    <name>Arête de Montseti</name>
    <desc><![CDATA[Randonnée à ski du sommet du télésiège de la Marquise de Sainte-Foy jusqu\'à Pierre Giret dans la vallée du Miroir.]]></desc>
  </metadata>
  <trk>
    <name><![CDATA[Seti-a]]></name>
    <trkseg>
      <trkpt lat="45.58823" lon="6.9301">
        <ele>2426</ele>
        <time>2008-03-15T09:46:33Z</time>
      </trkpt>
      <trkpt lat="45.58828" lon="6.92998">
        <ele>2426</ele>
        <time>2008-03-15T09:46:46Z</time>
      </trkpt>
      <trkpt lat="45.5883" lon="6.92992">
        <ele>2427</ele>
        <time>2008-03-15T09:47:01Z</time>
      </trkpt>
      <trkpt lat="45.58835" lon="6.92984">
        <ele>2427</ele>
        <time>2008-03-15T09:47:13Z</time>
      </trkpt>
      <trkpt lat="45.58842" lon="6.92984">
        <ele>2426</ele>
        <time>2008-03-15T09:47:28Z</time>
      </trkpt>
      <trkpt lat="45.58846" lon="6.92982">
        <ele>2428</ele>
        <time>2008-03-15T09:47:45Z</time>
      </trkpt>
      <trkpt lat="45.58849" lon="6.92979">
        <ele>2428</ele>
        <time>2008-03-15T09:47:51Z</time>
      </trkpt>
      <trkpt lat="45.58879" lon="6.92951">
        <ele>2427</ele>
        <time>2008-03-15T09:48:06Z</time>
      </trkpt>
      <trkpt lat="45.58929" lon="6.92909">
        <ele>2427</ele>
        <time>2008-03-15T09:48:22Z</time>
      </trkpt>
      <trkpt lat="45.58983" lon="6.92871">
        <ele>2426</ele>
        <time>2008-03-15T09:48:38Z</time>
      </trkpt>
      <trkpt lat="45.58985" lon="6.92872">
        <ele>2424</ele>
        <time>2008-03-15T09:48:46Z</time>
      </trkpt>
      <trkpt lat="45.58994" lon="6.92867">
        <ele>2423</ele>
        <time>2008-03-15T09:49:14Z</time>
      </trkpt>
      <trkpt lat="45.58999" lon="6.92866">
        <ele>2423</ele>
        <time>2008-03-15T09:49:26Z</time>
      </trkpt>
      <trkpt lat="45.59002" lon="6.92867">
        <ele>2424</ele>
        <time>2008-03-15T09:49:41Z</time>
      </trkpt>
      <trkpt lat="45.59005" lon="6.92872">
        <ele>2426</ele>
        <time>2008-03-15T09:49:56Z</time>
      </trkpt>
      <trkpt lat="45.59009" lon="6.92879">
        <ele>2426</ele>
        <time>2008-03-15T09:50:12Z</time>
      </trkpt>
      <trkpt lat="45.5901" lon="6.92881">
        <ele>2426</ele>
        <time>2008-03-15T09:50:36Z</time>
      </trkpt>
      <trkpt lat="45.59012" lon="6.92883">
        <ele>2427</ele>
        <time>2008-03-15T09:50:53Z</time>
      </trkpt>
      <trkpt lat="45.59014" lon="6.92882">
        <ele>2427</ele>
        <time>2008-03-15T09:50:54Z</time>
      </trkpt>
      <trkpt lat="45.59054" lon="6.92892">
        <ele>2424</ele>
        <time>2008-03-15T09:51:05Z</time>
      </trkpt>
      <trkpt lat="45.59096" lon="6.92904">
        <ele>2422</ele>
        <time>2008-03-15T09:51:13Z</time>
      </trkpt>
      <trkpt lat="45.59105" lon="6.92906">
        <ele>2422</ele>
        <time>2008-03-15T09:51:23Z</time>
      </trkpt>
      <trkpt lat="45.59132" lon="6.92915">
        <ele>2421</ele>
        <time>2008-03-15T09:51:40Z</time>
      </trkpt>
      <trkpt lat="45.5915" lon="6.92939">
        <ele>2419</ele>
        <time>2008-03-15T09:51:55Z</time>
      </trkpt>
      <trkpt lat="45.59154" lon="6.92943">
        <ele>2419</ele>
        <time>2008-03-15T09:52:17Z</time>
      </trkpt>
      <trkpt lat="45.59161" lon="6.92971">
        <ele>2421</ele>
        <time>2008-03-15T09:52:37Z</time>
      </trkpt>
      <trkpt lat="45.5916" lon="6.9299">
        <ele>2423</ele>
        <time>2008-03-15T09:52:51Z</time>
      </trkpt>
      <trkpt lat="45.59165" lon="6.9299">
        <ele>2418</ele>
        <time>2008-03-15T09:54:29Z</time>
      </trkpt>
      <trkpt lat="45.59164" lon="6.92989">
        <ele>2420</ele>
        <time>2008-03-15T09:54:55Z</time>
      </trkpt>
      <trkpt lat="45.59162" lon="6.92993">
        <ele>2422</ele>
        <time>2008-03-15T09:55:19Z</time>
      </trkpt>
      <trkpt lat="45.59156" lon="6.93006">
        <ele>2421</ele>
        <time>2008-03-15T09:55:22Z</time>
      </trkpt>
      <trkpt lat="45.5914" lon="6.93052">
        <ele>2416</ele>
        <time>2008-03-15T09:55:29Z</time>
      </trkpt>
      <trkpt lat="45.59136" lon="6.93069">
        <ele>2415</ele>
        <time>2008-03-15T09:55:31Z</time>
      </trkpt>
      <trkpt lat="45.59131" lon="6.93169">
        <ele>2410</ele>
        <time>2008-03-15T09:55:45Z</time>
      </trkpt>
      <trkpt lat="45.59126" lon="6.93196">
        <ele>2407</ele>
        <time>2008-03-15T09:55:50Z</time>
      </trkpt>
      <trkpt lat="45.59118" lon="6.93218">
        <ele>2405</ele>
        <time>2008-03-15T09:55:54Z</time>
      </trkpt>
      <trkpt lat="45.59126" lon="6.93253">
        <ele>2402</ele>
        <time>2008-03-15T09:56:00Z</time>
      </trkpt>
      <trkpt lat="45.59145" lon="6.93273">
        <ele>2400</ele>
        <time>2008-03-15T09:56:04Z</time>
      </trkpt>
      <trkpt lat="45.59161" lon="6.93295">
        <ele>2395</ele>
        <time>2008-03-15T09:56:08Z</time>
      </trkpt>
      <trkpt lat="45.59165" lon="6.93309">
        <ele>2393</ele>
        <time>2008-03-15T09:56:10Z</time>
      </trkpt>
      <trkpt lat="45.59166" lon="6.93373">
        <ele>2385</ele>
        <time>2008-03-15T09:56:23Z</time>
      </trkpt>
      <trkpt lat="45.59159" lon="6.93436">
        <ele>2377</ele>
        <time>2008-03-15T09:56:34Z</time>
      </trkpt>
      <trkpt lat="45.59153" lon="6.9346">
        <ele>2376</ele>
        <time>2008-03-15T09:56:42Z</time>
      </trkpt>
      <trkpt lat="45.59134" lon="6.93512">
        <ele>2367</ele>
        <time>2008-03-15T09:56:50Z</time>
      </trkpt>
      <trkpt lat="45.59127" lon="6.93538">
        <ele>2366</ele>
        <time>2008-03-15T09:56:55Z</time>
      </trkpt>
      <trkpt lat="45.59113" lon="6.93618">
        <ele>2358</ele>
        <time>2008-03-15T09:57:05Z</time>
      </trkpt>
      <trkpt lat="45.59119" lon="6.93674">
        <ele>2352</ele>
        <time>2008-03-15T09:57:12Z</time>
      </trkpt>
      <trkpt lat="45.59125" lon="6.937">
        <ele>2349</ele>
        <time>2008-03-15T09:57:16Z</time>
      </trkpt>
      <trkpt lat="45.59133" lon="6.93708">
        <ele>2347</ele>
        <time>2008-03-15T09:57:19Z</time>
      </trkpt>
      <trkpt lat="45.5915" lon="6.93684">
        <ele>2344</ele>
        <time>2008-03-15T09:57:23Z</time>
      </trkpt>
      <trkpt lat="45.59164" lon="6.93725">
        <ele>2337</ele>
        <time>2008-03-15T09:57:31Z</time>
      </trkpt>
      <trkpt lat="45.59162" lon="6.93747">
        <ele>2335</ele>
        <time>2008-03-15T09:57:35Z</time>
      </trkpt>
      <trkpt lat="45.59156" lon="6.93764">
        <ele>2333</ele>
        <time>2008-03-15T09:57:38Z</time>
      </trkpt>
      <trkpt lat="45.59164" lon="6.93784">
        <ele>2332</ele>
        <time>2008-03-15T09:57:43Z</time>
      </trkpt>
      <trkpt lat="45.59159" lon="6.93805">
        <ele>2330</ele>
        <time>2008-03-15T09:57:46Z</time>
      </trkpt>
      <trkpt lat="45.59165" lon="6.93829">
        <ele>2328</ele>
        <time>2008-03-15T09:57:50Z</time>
      </trkpt>
      <trkpt lat="45.59178" lon="6.93858">
        <ele>2323</ele>
        <time>2008-03-15T09:57:55Z</time>
      </trkpt>
      <trkpt lat="45.59179" lon="6.93858">
        <ele>2316</ele>
        <time>2008-03-15T09:58:04Z</time>
      </trkpt>
      <trkpt lat="45.59182" lon="6.93863">
        <ele>2305</ele>
        <time>2008-03-15T09:58:26Z</time>
      </trkpt>
      <trkpt lat="45.59196" lon="6.93875">
        <ele>2300</ele>
        <time>2008-03-15T09:58:31Z</time>
      </trkpt>
      <trkpt lat="45.59211" lon="6.93894">
        <ele>2296</ele>
        <time>2008-03-15T09:58:35Z</time>
      </trkpt>
      <trkpt lat="45.5925" lon="6.93954">
        <ele>2258</ele>
        <time>2008-03-15T09:59:45Z</time>
      </trkpt>
      <trkpt lat="45.59278" lon="6.93954">
        <ele>2253</ele>
        <time>2008-03-15T09:59:50Z</time>
      </trkpt>
      <trkpt lat="45.59289" lon="6.93988">
        <ele>2231</ele>
        <time>2008-03-15T10:00:28Z</time>
      </trkpt>
      <trkpt lat="45.59289" lon="6.93995">
        <ele>2228</ele>
        <time>2008-03-15T10:00:32Z</time>
      </trkpt>
      <trkpt lat="45.59304" lon="6.94004">
        <ele>2228</ele>
        <time>2008-03-15T10:00:35Z</time>
      </trkpt>
      <trkpt lat="45.59353" lon="6.94043">
        <ele>2227</ele>
        <time>2008-03-15T10:00:44Z</time>
      </trkpt>
      <trkpt lat="45.59366" lon="6.94047">
        <ele>2224</ele>
        <time>2008-03-15T10:00:46Z</time>
      </trkpt>
      <trkpt lat="45.59386" lon="6.94048">
        <ele>2218</ele>
        <time>2008-03-15T10:00:51Z</time>
      </trkpt>
      <trkpt lat="45.59419" lon="6.94056">
        <ele>2210</ele>
        <time>2008-03-15T10:00:56Z</time>
      </trkpt>
      <trkpt lat="45.59438" lon="6.94078">
        <ele>2125</ele>
        <time>2008-03-15T10:01:00Z</time>
      </trkpt>
      <trkpt lat="45.59454" lon="6.94099">
        <ele>2129</ele>
        <time>2008-03-15T10:01:04Z</time>
      </trkpt>
      <trkpt lat="45.59462" lon="6.94131">
        <ele>2118</ele>
        <time>2008-03-15T10:01:08Z</time>
      </trkpt>
      <trkpt lat="45.59463" lon="6.94165">
        <ele>2114</ele>
        <time>2008-03-15T10:01:13Z</time>
      </trkpt>
      <trkpt lat="45.59455" lon="6.94175">
        <ele>2118</ele>
        <time>2008-03-15T10:01:23Z</time>
      </trkpt>
      <trkpt lat="45.59447" lon="6.94184">
        <ele>2119</ele>
        <time>2008-03-15T10:02:06Z</time>
      </trkpt>
      <trkpt lat="45.5944" lon="6.94228">
        <ele>2115</ele>
        <time>2008-03-15T10:02:14Z</time>
      </trkpt>
      <trkpt lat="45.59451" lon="6.94278">
        <ele>2107</ele>
        <time>2008-03-15T10:02:21Z</time>
      </trkpt>
      <trkpt lat="45.59457" lon="6.94284">
        <ele>2106</ele>
        <time>2008-03-15T10:02:22Z</time>
      </trkpt>
      <trkpt lat="45.59472" lon="6.94298">
        <ele>2104</ele>
        <time>2008-03-15T10:02:25Z</time>
      </trkpt>
      <trkpt lat="45.5949" lon="6.94319">
        <ele>2102</ele>
        <time>2008-03-15T10:02:29Z</time>
      </trkpt>
      <trkpt lat="45.59498" lon="6.94324">
        <ele>2101</ele>
        <time>2008-03-15T10:02:31Z</time>
      </trkpt>
      <trkpt lat="45.59517" lon="6.94356">
        <ele>2097</ele>
        <time>2008-03-15T10:02:36Z</time>
      </trkpt>
      <trkpt lat="45.59531" lon="6.9439">
        <ele>2094</ele>
        <time>2008-03-15T10:02:40Z</time>
      </trkpt>
      <trkpt lat="45.59531" lon="6.94404">
        <ele>2091</ele>
        <time>2008-03-15T10:02:50Z</time>
      </trkpt>
      <trkpt lat="45.59532" lon="6.94403">
        <ele>2079</ele>
        <time>2008-03-15T10:03:23Z</time>
      </trkpt>
      <trkpt lat="45.59547" lon="6.94409">
        <ele>2078</ele>
        <time>2008-03-15T10:03:27Z</time>
      </trkpt>
      <trkpt lat="45.59589" lon="6.94444">
        <ele>2068</ele>
        <time>2008-03-15T10:03:34Z</time>
      </trkpt>
      <trkpt lat="45.59594" lon="6.9446">
        <ele>2067</ele>
        <time>2008-03-15T10:03:36Z</time>
      </trkpt>
      <trkpt lat="45.59604" lon="6.94472">
        <ele>2066</ele>
        <time>2008-03-15T10:03:38Z</time>
      </trkpt>
      <trkpt lat="45.59629" lon="6.94485">
        <ele>2061</ele>
        <time>2008-03-15T10:03:43Z</time>
      </trkpt>
      <trkpt lat="45.59698" lon="6.94539">
        <ele>2013</ele>
        <time>2008-03-15T10:05:02Z</time>
      </trkpt>
      <trkpt lat="45.59715" lon="6.9455">
        <ele>2011</ele>
        <time>2008-03-15T10:05:06Z</time>
      </trkpt>
      <trkpt lat="45.59734" lon="6.9457">
        <ele>2001</ele>
        <time>2008-03-15T10:05:17Z</time>
      </trkpt>
      <trkpt lat="45.59751" lon="6.94581">
        <ele>1993</ele>
        <time>2008-03-15T10:05:27Z</time>
      </trkpt>
      <trkpt lat="45.59753" lon="6.94604">
        <ele>1985</ele>
        <time>2008-03-15T10:05:44Z</time>
      </trkpt>
      <trkpt lat="45.59752" lon="6.94614">
        <ele>1979</ele>
        <time>2008-03-15T10:05:52Z</time>
      </trkpt>
      <trkpt lat="45.59753" lon="6.94659">
        <ele>1974</ele>
        <time>2008-03-15T10:05:59Z</time>
      </trkpt>
      <trkpt lat="45.5977" lon="6.94682">
        <ele>1969</ele>
        <time>2008-03-15T10:06:04Z</time>
      </trkpt>
      <trkpt lat="45.59809" lon="6.94697">
        <ele>1967</ele>
        <time>2008-03-15T10:06:09Z</time>
      </trkpt>
      <trkpt lat="45.59819" lon="6.94699">
        <ele>1966</ele>
        <time>2008-03-15T10:06:10Z</time>
      </trkpt>
      <trkpt lat="45.59836" lon="6.94708">
        <ele>1963</ele>
        <time>2008-03-15T10:06:12Z</time>
      </trkpt>
      <trkpt lat="45.59853" lon="6.94734">
        <ele>1959</ele>
        <time>2008-03-15T10:06:19Z</time>
      </trkpt>
      <trkpt lat="45.59861" lon="6.94732">
        <ele>1957</ele>
        <time>2008-03-15T10:06:25Z</time>
      </trkpt>
      <trkpt lat="45.59875" lon="6.94742">
        <ele>1955</ele>
        <time>2008-03-15T10:06:29Z</time>
      </trkpt>
      <trkpt lat="45.59914" lon="6.94742">
        <ele>1952</ele>
        <time>2008-03-15T10:06:37Z</time>
      </trkpt>
      <trkpt lat="45.59936" lon="6.94726">
        <ele>1949</ele>
        <time>2008-03-15T10:06:43Z</time>
      </trkpt>
      <trkpt lat="45.59965" lon="6.94697">
        <ele>1945</ele>
        <time>2008-03-15T10:06:53Z</time>
      </trkpt>
      <trkpt lat="45.59969" lon="6.94686">
        <ele>1944</ele>
        <time>2008-03-15T10:06:55Z</time>
      </trkpt>
      <trkpt lat="45.59992" lon="6.94653">
        <ele>1942</ele>
        <time>2008-03-15T10:07:00Z</time>
      </trkpt>
      <trkpt lat="45.60002" lon="6.94643">
        <ele>1940</ele>
        <time>2008-03-15T10:07:03Z</time>
      </trkpt>
      <trkpt lat="45.60024" lon="6.94627">
        <ele>1938</ele>
        <time>2008-03-15T10:07:09Z</time>
      </trkpt>
      <trkpt lat="45.60034" lon="6.94616">
        <ele>1938</ele>
        <time>2008-03-15T10:07:13Z</time>
      </trkpt>
      <trkpt lat="45.60051" lon="6.94609">
        <ele>1935</ele>
        <time>2008-03-15T10:07:17Z</time>
      </trkpt>
      <trkpt lat="45.60056" lon="6.94616">
        <ele>1933</ele>
        <time>2008-03-15T10:07:19Z</time>
      </trkpt>
      <trkpt lat="45.60058" lon="6.94611">
        <ele>1930</ele>
        <time>2008-03-15T10:07:22Z</time>
      </trkpt>
      <trkpt lat="45.60061" lon="6.94587">
        <ele>1927</ele>
        <time>2008-03-15T10:07:26Z</time>
      </trkpt>
      <trkpt lat="45.60074" lon="6.94596">
        <ele>1923</ele>
        <time>2008-03-15T10:07:31Z</time>
      </trkpt>
      <trkpt lat="45.60082" lon="6.94603">
        <ele>1921</ele>
        <time>2008-03-15T10:07:33Z</time>
      </trkpt>
      <trkpt lat="45.60096" lon="6.94607">
        <ele>1921</ele>
        <time>2008-03-15T10:07:36Z</time>
      </trkpt>
      <trkpt lat="45.60112" lon="6.94609">
        <ele>1921</ele>
        <time>2008-03-15T10:07:39Z</time>
      </trkpt>
      <trkpt lat="45.60148" lon="6.94605">
        <ele>1917</ele>
        <time>2008-03-15T10:07:49Z</time>
      </trkpt>
      <trkpt lat="45.60195" lon="6.94561">
        <ele>1887</ele>
        <time>2008-03-15T10:24:57Z</time>
      </trkpt>
      <trkpt lat="45.60198" lon="6.94556">
        <ele>1890</ele>
        <time>2008-03-15T10:25:15Z</time>
      </trkpt>
      <trkpt lat="45.60206" lon="6.94554">
        <ele>1893</ele>
        <time>2008-03-15T10:25:34Z</time>
      </trkpt>
      <trkpt lat="45.60219" lon="6.94553">
        <ele>1896</ele>
        <time>2008-03-15T10:26:11Z</time>
      </trkpt>
      <trkpt lat="45.60224" lon="6.94559">
        <ele>1899</ele>
        <time>2008-03-15T10:26:26Z</time>
      </trkpt>
      <trkpt lat="45.60232" lon="6.94564">
        <ele>1900</ele>
        <time>2008-03-15T10:26:45Z</time>
      </trkpt>
      <trkpt lat="45.60237" lon="6.94558">
        <ele>1902</ele>
        <time>2008-03-15T10:27:02Z</time>
      </trkpt>
      <trkpt lat="45.60242" lon="6.9455">
        <ele>1903</ele>
        <time>2008-03-15T10:27:22Z</time>
      </trkpt>
      <trkpt lat="45.60244" lon="6.94552">
        <ele>1903</ele>
        <time>2008-03-15T10:27:40Z</time>
      </trkpt>
      <trkpt lat="45.60254" lon="6.94552">
        <ele>1907</ele>
        <time>2008-03-15T10:28:11Z</time>
      </trkpt>
      <trkpt lat="45.60257" lon="6.9456">
        <ele>1907</ele>
        <time>2008-03-15T10:28:28Z</time>
      </trkpt>
      <trkpt lat="45.60255" lon="6.94571">
        <ele>1908</ele>
        <time>2008-03-15T10:28:42Z</time>
      </trkpt>
      <trkpt lat="45.60256" lon="6.94575">
        <ele>1913</ele>
        <time>2008-03-15T10:28:57Z</time>
      </trkpt>
      <trkpt lat="45.60262" lon="6.94583">
        <ele>1914</ele>
        <time>2008-03-15T10:29:14Z</time>
      </trkpt>
      <trkpt lat="45.60268" lon="6.94592">
        <ele>1916</ele>
        <time>2008-03-15T10:29:29Z</time>
      </trkpt>
      <trkpt lat="45.60271" lon="6.94598">
        <ele>1917</ele>
        <time>2008-03-15T10:29:46Z</time>
      </trkpt>
      <trkpt lat="45.60277" lon="6.94605">
        <ele>1919</ele>
        <time>2008-03-15T10:30:04Z</time>
      </trkpt>
      <trkpt lat="45.60281" lon="6.94619">
        <ele>1920</ele>
        <time>2008-03-15T10:30:31Z</time>
      </trkpt>
      <trkpt lat="45.60287" lon="6.94625">
        <ele>1925</ele>
        <time>2008-03-15T10:30:51Z</time>
      </trkpt>
      <trkpt lat="45.60291" lon="6.94634">
        <ele>1927</ele>
        <time>2008-03-15T10:31:05Z</time>
      </trkpt>
      <trkpt lat="45.60295" lon="6.94642">
        <ele>1929</ele>
        <time>2008-03-15T10:31:19Z</time>
      </trkpt>
      <trkpt lat="45.603" lon="6.94658">
        <ele>1933</ele>
        <time>2008-03-15T10:31:38Z</time>
      </trkpt>
      <trkpt lat="45.60305" lon="6.94672">
        <ele>1935</ele>
        <time>2008-03-15T10:32:03Z</time>
      </trkpt>
      <trkpt lat="45.60309" lon="6.94682">
        <ele>1936</ele>
        <time>2008-03-15T10:32:22Z</time>
      </trkpt>
      <trkpt lat="45.60314" lon="6.9469">
        <ele>1937</ele>
        <time>2008-03-15T10:32:47Z</time>
      </trkpt>
      <trkpt lat="45.60331" lon="6.9471">
        <ele>1940</ele>
        <time>2008-03-15T10:33:36Z</time>
      </trkpt>
      <trkpt lat="45.60335" lon="6.94717">
        <ele>1941</ele>
        <time>2008-03-15T10:33:54Z</time>
      </trkpt>
      <trkpt lat="45.60336" lon="6.94724">
        <ele>1942</ele>
        <time>2008-03-15T10:34:10Z</time>
      </trkpt>
      <trkpt lat="45.60334" lon="6.94731">
        <ele>1946</ele>
        <time>2008-03-15T10:34:24Z</time>
      </trkpt>
      <trkpt lat="45.60337" lon="6.94738">
        <ele>1947</ele>
        <time>2008-03-15T10:34:39Z</time>
      </trkpt>
      <trkpt lat="45.60349" lon="6.94744">
        <ele>1952</ele>
        <time>2008-03-15T10:35:12Z</time>
      </trkpt>
      <trkpt lat="45.60354" lon="6.94746">
        <ele>1953</ele>
        <time>2008-03-15T10:35:32Z</time>
      </trkpt>
      <trkpt lat="45.60361" lon="6.94747">
        <ele>1954</ele>
        <time>2008-03-15T10:35:51Z</time>
      </trkpt>
      <trkpt lat="45.60366" lon="6.94747">
        <ele>1956</ele>
        <time>2008-03-15T10:36:03Z</time>
      </trkpt>
      <trkpt lat="45.6037" lon="6.94753">
        <ele>1958</ele>
        <time>2008-03-15T10:36:19Z</time>
      </trkpt>
      <trkpt lat="45.6037" lon="6.94758">
        <ele>1961</ele>
        <time>2008-03-15T10:36:33Z</time>
      </trkpt>
      <trkpt lat="45.60367" lon="6.94763">
        <ele>1962</ele>
        <time>2008-03-15T10:36:49Z</time>
      </trkpt>
      <trkpt lat="45.60363" lon="6.94773">
        <ele>1962</ele>
        <time>2008-03-15T10:37:03Z</time>
      </trkpt>
      <trkpt lat="45.60364" lon="6.94783">
        <ele>1968</ele>
        <time>2008-03-15T10:37:17Z</time>
      </trkpt>
      <trkpt lat="45.60362" lon="6.94792">
        <ele>1970</ele>
        <time>2008-03-15T10:37:34Z</time>
      </trkpt>
      <trkpt lat="45.60362" lon="6.94791">
        <ele>1971</ele>
        <time>2008-03-15T10:38:16Z</time>
      </trkpt>
      <trkpt lat="45.6037" lon="6.94807">
        <ele>1979</ele>
        <time>2008-03-15T10:39:40Z</time>
      </trkpt>
      <trkpt lat="45.60377" lon="6.94817">
        <ele>1979</ele>
        <time>2008-03-15T10:40:00Z</time>
      </trkpt>
      <trkpt lat="45.60381" lon="6.94822">
        <ele>1978</ele>
        <time>2008-03-15T10:40:14Z</time>
      </trkpt>
      <trkpt lat="45.60387" lon="6.94823">
        <ele>1979</ele>
        <time>2008-03-15T10:40:29Z</time>
      </trkpt>
      <trkpt lat="45.60394" lon="6.94823">
        <ele>1982</ele>
        <time>2008-03-15T10:40:45Z</time>
      </trkpt>
      <trkpt lat="45.60399" lon="6.94823">
        <ele>1983</ele>
        <time>2008-03-15T10:40:57Z</time>
      </trkpt>
      <trkpt lat="45.60405" lon="6.94823">
        <ele>1985</ele>
        <time>2008-03-15T10:41:13Z</time>
      </trkpt>
      <trkpt lat="45.60412" lon="6.94824">
        <ele>1989</ele>
        <time>2008-03-15T10:41:30Z</time>
      </trkpt>
      <trkpt lat="45.60415" lon="6.9483">
        <ele>1990</ele>
        <time>2008-03-15T10:41:43Z</time>
      </trkpt>
      <trkpt lat="45.60415" lon="6.94838">
        <ele>1992</ele>
        <time>2008-03-15T10:42:00Z</time>
      </trkpt>
      <trkpt lat="45.60416" lon="6.9485">
        <ele>1997</ele>
        <time>2008-03-15T10:42:16Z</time>
      </trkpt>
      <trkpt lat="45.60416" lon="6.94857">
        <ele>1997</ele>
        <time>2008-03-15T10:42:32Z</time>
      </trkpt>
      <trkpt lat="45.60415" lon="6.94863">
        <ele>1997</ele>
        <time>2008-03-15T10:42:47Z</time>
      </trkpt>
      <trkpt lat="45.60416" lon="6.94873">
        <ele>2000</ele>
        <time>2008-03-15T10:43:00Z</time>
      </trkpt>
      <trkpt lat="45.60416" lon="6.94879">
        <ele>1999</ele>
        <time>2008-03-15T10:43:13Z</time>
      </trkpt>
      <trkpt lat="45.60418" lon="6.9489">
        <ele>2005</ele>
        <time>2008-03-15T10:43:30Z</time>
      </trkpt>
      <trkpt lat="45.60418" lon="6.94903">
        <ele>2010</ele>
        <time>2008-03-15T10:43:45Z</time>
      </trkpt>
      <trkpt lat="45.60418" lon="6.94911">
        <ele>2009</ele>
        <time>2008-03-15T10:44:02Z</time>
      </trkpt>
      <trkpt lat="45.60421" lon="6.94919">
        <ele>2010</ele>
        <time>2008-03-15T10:44:22Z</time>
      </trkpt>
      <trkpt lat="45.60427" lon="6.94914">
        <ele>2003</ele>
        <time>2008-03-15T10:44:42Z</time>
      </trkpt>
      <trkpt lat="45.6043" lon="6.94916">
        <ele>2009</ele>
        <time>2008-03-15T10:44:55Z</time>
      </trkpt>
      <trkpt lat="45.60434" lon="6.94916">
        <ele>2009</ele>
        <time>2008-03-15T10:45:16Z</time>
      </trkpt>
      <trkpt lat="45.60438" lon="6.94917">
        <ele>2011</ele>
        <time>2008-03-15T10:45:30Z</time>
      </trkpt>
      <trkpt lat="45.60443" lon="6.9492">
        <ele>2013</ele>
        <time>2008-03-15T10:45:42Z</time>
      </trkpt>
      <trkpt lat="45.60447" lon="6.94925">
        <ele>2015</ele>
        <time>2008-03-15T10:45:56Z</time>
      </trkpt>
      <trkpt lat="45.60452" lon="6.9494">
        <ele>2017</ele>
        <time>2008-03-15T10:46:30Z</time>
      </trkpt>
      <trkpt lat="45.60454" lon="6.94947">
        <ele>2018</ele>
        <time>2008-03-15T10:46:47Z</time>
      </trkpt>
      <trkpt lat="45.60459" lon="6.94948">
        <ele>2023</ele>
        <time>2008-03-15T10:47:02Z</time>
      </trkpt>
      <trkpt lat="45.60464" lon="6.94944">
        <ele>2025</ele>
        <time>2008-03-15T10:47:18Z</time>
      </trkpt>
      <trkpt lat="45.6047" lon="6.94944">
        <ele>2029</ele>
        <time>2008-03-15T10:47:35Z</time>
      </trkpt>
      <trkpt lat="45.60474" lon="6.94944">
        <ele>2030</ele>
        <time>2008-03-15T10:47:49Z</time>
      </trkpt>
      <trkpt lat="45.60478" lon="6.94944">
        <ele>2032</ele>
        <time>2008-03-15T10:48:03Z</time>
      </trkpt>
      <trkpt lat="45.60484" lon="6.94943">
        <ele>2033</ele>
        <time>2008-03-15T10:48:18Z</time>
      </trkpt>
      <trkpt lat="45.60488" lon="6.94943">
        <ele>2035</ele>
        <time>2008-03-15T10:48:32Z</time>
      </trkpt>
      <trkpt lat="45.60491" lon="6.94943">
        <ele>2037</ele>
        <time>2008-03-15T10:48:45Z</time>
      </trkpt>
      <trkpt lat="45.60496" lon="6.94944">
        <ele>2038</ele>
        <time>2008-03-15T10:48:58Z</time>
      </trkpt>
      <trkpt lat="45.60503" lon="6.94944">
        <ele>2043</ele>
        <time>2008-03-15T10:49:12Z</time>
      </trkpt>
      <trkpt lat="45.60513" lon="6.94948">
        <ele>2045</ele>
        <time>2008-03-15T10:49:34Z</time>
      </trkpt>
      <trkpt lat="45.60521" lon="6.94948">
        <ele>2046</ele>
        <time>2008-03-15T10:49:55Z</time>
      </trkpt>
      <trkpt lat="45.6052" lon="6.94945">
        <ele>2052</ele>
        <time>2008-03-15T10:50:16Z</time>
      </trkpt>
      <trkpt lat="45.60521" lon="6.94946">
        <ele>2046</ele>
        <time>2008-03-15T10:51:41Z</time>
      </trkpt>
      <trkpt lat="45.60527" lon="6.94944">
        <ele>2048</ele>
        <time>2008-03-15T10:52:44Z</time>
      </trkpt>
      <trkpt lat="45.60533" lon="6.94945">
        <ele>2047</ele>
        <time>2008-03-15T10:53:00Z</time>
      </trkpt>
      <trkpt lat="45.6054" lon="6.94944">
        <ele>2048</ele>
        <time>2008-03-15T10:53:16Z</time>
      </trkpt>
      <trkpt lat="45.60543" lon="6.94947">
        <ele>2052</ele>
        <time>2008-03-15T10:53:28Z</time>
      </trkpt>
      <trkpt lat="45.60542" lon="6.94951">
        <ele>2055</ele>
        <time>2008-03-15T10:53:42Z</time>
      </trkpt>
      <trkpt lat="45.60548" lon="6.94962">
        <ele>2058</ele>
        <time>2008-03-15T10:53:59Z</time>
      </trkpt>
      <trkpt lat="45.60553" lon="6.94969">
        <ele>2058</ele>
        <time>2008-03-15T10:54:18Z</time>
      </trkpt>
      <trkpt lat="45.6056" lon="6.9497">
        <ele>2057</ele>
        <time>2008-03-15T10:54:37Z</time>
      </trkpt>
      <trkpt lat="45.60568" lon="6.94969">
        <ele>2058</ele>
        <time>2008-03-15T10:54:55Z</time>
      </trkpt>
      <trkpt lat="45.60576" lon="6.94961">
        <ele>2076</ele>
        <time>2008-03-15T10:55:10Z</time>
      </trkpt>
      <trkpt lat="45.60579" lon="6.94974">
        <ele>2072</ele>
        <time>2008-03-15T10:55:26Z</time>
      </trkpt>
      <trkpt lat="45.60586" lon="6.94983">
        <ele>2073</ele>
        <time>2008-03-15T10:55:46Z</time>
      </trkpt>
      <trkpt lat="45.6059" lon="6.94982">
        <ele>2080</ele>
        <time>2008-03-15T10:55:58Z</time>
      </trkpt>
      <trkpt lat="45.60597" lon="6.94988">
        <ele>2076</ele>
        <time>2008-03-15T10:56:14Z</time>
      </trkpt>
      <trkpt lat="45.60604" lon="6.94989">
        <ele>2076</ele>
        <time>2008-03-15T10:56:31Z</time>
      </trkpt>
      <trkpt lat="45.60609" lon="6.94985">
        <ele>2076</ele>
        <time>2008-03-15T10:56:47Z</time>
      </trkpt>
      <trkpt lat="45.60614" lon="6.94977">
        <ele>2078</ele>
        <time>2008-03-15T10:57:09Z</time>
      </trkpt>
      <trkpt lat="45.60618" lon="6.94977">
        <ele>2077</ele>
        <time>2008-03-15T10:57:24Z</time>
      </trkpt>
      <trkpt lat="45.60622" lon="6.94978">
        <ele>2077</ele>
        <time>2008-03-15T10:57:40Z</time>
      </trkpt>
      <trkpt lat="45.60629" lon="6.94976">
        <ele>2081</ele>
        <time>2008-03-15T10:57:58Z</time>
      </trkpt>
      <trkpt lat="45.60638" lon="6.94977">
        <ele>2083</ele>
        <time>2008-03-15T10:58:16Z</time>
      </trkpt>
      <trkpt lat="45.60643" lon="6.94976">
        <ele>2085</ele>
        <time>2008-03-15T10:58:30Z</time>
      </trkpt>
      <trkpt lat="45.60648" lon="6.94975">
        <ele>2087</ele>
        <time>2008-03-15T10:58:43Z</time>
      </trkpt>
      <trkpt lat="45.60652" lon="6.94981">
        <ele>2089</ele>
        <time>2008-03-15T10:59:00Z</time>
      </trkpt>
      <trkpt lat="45.60654" lon="6.94991">
        <ele>2094</ele>
        <time>2008-03-15T10:59:17Z</time>
      </trkpt>
      <trkpt lat="45.60655" lon="6.94998">
        <ele>2094</ele>
        <time>2008-03-15T10:59:32Z</time>
      </trkpt>
      <trkpt lat="45.60657" lon="6.95003">
        <ele>2096</ele>
        <time>2008-03-15T10:59:46Z</time>
      </trkpt>
      <trkpt lat="45.60659" lon="6.95011">
        <ele>2098</ele>
        <time>2008-03-15T10:59:59Z</time>
      </trkpt>
      <trkpt lat="45.60661" lon="6.95015">
        <ele>2096</ele>
        <time>2008-03-15T11:00:14Z</time>
      </trkpt>
      <trkpt lat="45.60667" lon="6.95019">
        <ele>2104</ele>
        <time>2008-03-15T11:00:31Z</time>
      </trkpt>
      <trkpt lat="45.60671" lon="6.95027">
        <ele>2108</ele>
        <time>2008-03-15T11:00:46Z</time>
      </trkpt>
      <trkpt lat="45.60674" lon="6.95033">
        <ele>2108</ele>
        <time>2008-03-15T11:01:01Z</time>
      </trkpt>
      <trkpt lat="45.60675" lon="6.95042">
        <ele>2111</ele>
        <time>2008-03-15T11:01:15Z</time>
      </trkpt>
      <trkpt lat="45.60678" lon="6.95049">
        <ele>2110</ele>
        <time>2008-03-15T11:01:29Z</time>
      </trkpt>
      <trkpt lat="45.60681" lon="6.95054">
        <ele>2113</ele>
        <time>2008-03-15T11:01:41Z</time>
      </trkpt>
      <trkpt lat="45.60684" lon="6.95059">
        <ele>2113</ele>
        <time>2008-03-15T11:01:54Z</time>
      </trkpt>
      <trkpt lat="45.60687" lon="6.95063">
        <ele>2113</ele>
        <time>2008-03-15T11:02:09Z</time>
      </trkpt>
      <trkpt lat="45.60692" lon="6.95067">
        <ele>2117</ele>
        <time>2008-03-15T11:02:29Z</time>
      </trkpt>
      <trkpt lat="45.60698" lon="6.95073">
        <ele>2121</ele>
        <time>2008-03-15T11:02:46Z</time>
      </trkpt>
      <trkpt lat="45.607" lon="6.95079">
        <ele>2119</ele>
        <time>2008-03-15T11:03:00Z</time>
      </trkpt>
      <trkpt lat="45.60704" lon="6.95075">
        <ele>2121</ele>
        <time>2008-03-15T11:03:13Z</time>
      </trkpt>
      <trkpt lat="45.60706" lon="6.95071">
        <ele>2121</ele>
        <time>2008-03-15T11:03:27Z</time>
      </trkpt>
      <trkpt lat="45.60711" lon="6.95066">
        <ele>2122</ele>
        <time>2008-03-15T11:03:42Z</time>
      </trkpt>
      <trkpt lat="45.60715" lon="6.9506">
        <ele>2124</ele>
        <time>2008-03-15T11:03:57Z</time>
      </trkpt>
      <trkpt lat="45.60718" lon="6.95055">
        <ele>2126</ele>
        <time>2008-03-15T11:04:11Z</time>
      </trkpt>
      <trkpt lat="45.60722" lon="6.9505">
        <ele>2127</ele>
        <time>2008-03-15T11:04:28Z</time>
      </trkpt>
      <trkpt lat="45.60727" lon="6.95044">
        <ele>2129</ele>
        <time>2008-03-15T11:04:43Z</time>
      </trkpt>
      <trkpt lat="45.60728" lon="6.9504">
        <ele>2129</ele>
        <time>2008-03-15T11:04:56Z</time>
      </trkpt>
      <trkpt lat="45.60734" lon="6.95035">
        <ele>2131</ele>
        <time>2008-03-15T11:05:10Z</time>
      </trkpt>
      <trkpt lat="45.60736" lon="6.9503">
        <ele>2132</ele>
        <time>2008-03-15T11:05:25Z</time>
      </trkpt>
      <trkpt lat="45.6074" lon="6.95025">
        <ele>2134</ele>
        <time>2008-03-15T11:05:40Z</time>
      </trkpt>
      <trkpt lat="45.60743" lon="6.95021">
        <ele>2135</ele>
        <time>2008-03-15T11:05:54Z</time>
      </trkpt>
      <trkpt lat="45.60746" lon="6.95015">
        <ele>2139</ele>
        <time>2008-03-15T11:06:10Z</time>
      </trkpt>
      <trkpt lat="45.60751" lon="6.9501">
        <ele>2141</ele>
        <time>2008-03-15T11:06:24Z</time>
      </trkpt>
      <trkpt lat="45.60754" lon="6.95006">
        <ele>2144</ele>
        <time>2008-03-15T11:06:38Z</time>
      </trkpt>
      <trkpt lat="45.60758" lon="6.95002">
        <ele>2146</ele>
        <time>2008-03-15T11:06:52Z</time>
      </trkpt>
      <trkpt lat="45.60763" lon="6.94998">
        <ele>2148</ele>
        <time>2008-03-15T11:07:08Z</time>
      </trkpt>
      <trkpt lat="45.60769" lon="6.94994">
        <ele>2150</ele>
        <time>2008-03-15T11:07:23Z</time>
      </trkpt>
      <trkpt lat="45.60773" lon="6.9499">
        <ele>2150</ele>
        <time>2008-03-15T11:07:37Z</time>
      </trkpt>
      <trkpt lat="45.60777" lon="6.94985">
        <ele>2152</ele>
        <time>2008-03-15T11:07:52Z</time>
      </trkpt>
      <trkpt lat="45.60781" lon="6.94981">
        <ele>2154</ele>
        <time>2008-03-15T11:08:07Z</time>
      </trkpt>
      <trkpt lat="45.60787" lon="6.94984">
        <ele>2154</ele>
        <time>2008-03-15T11:08:25Z</time>
      </trkpt>
      <trkpt lat="45.6079" lon="6.9499">
        <ele>2157</ele>
        <time>2008-03-15T11:08:41Z</time>
      </trkpt>
      <trkpt lat="45.60793" lon="6.95">
        <ele>2160</ele>
        <time>2008-03-15T11:09:02Z</time>
      </trkpt>
      <trkpt lat="45.60793" lon="6.95007">
        <ele>2159</ele>
        <time>2008-03-15T11:09:15Z</time>
      </trkpt>
      <trkpt lat="45.60794" lon="6.95012">
        <ele>2158</ele>
        <time>2008-03-15T11:09:29Z</time>
      </trkpt>
      <trkpt lat="45.60795" lon="6.95018">
        <ele>2160</ele>
        <time>2008-03-15T11:09:40Z</time>
      </trkpt>
      <trkpt lat="45.60797" lon="6.95025">
        <ele>2161</ele>
        <time>2008-03-15T11:09:57Z</time>
      </trkpt>
      <trkpt lat="45.60799" lon="6.95029">
        <ele>2162</ele>
        <time>2008-03-15T11:10:09Z</time>
      </trkpt>
      <trkpt lat="45.60802" lon="6.9503">
        <ele>2167</ele>
        <time>2008-03-15T11:10:37Z</time>
      </trkpt>
      <trkpt lat="45.60801" lon="6.95029">
        <ele>2167</ele>
        <time>2008-03-15T11:11:54Z</time>
      </trkpt>
      <trkpt lat="45.60803" lon="6.95032">
        <ele>2177</ele>
        <time>2008-03-15T11:21:04Z</time>
      </trkpt>
      <trkpt lat="45.60805" lon="6.95031">
        <ele>2170</ele>
        <time>2008-03-15T11:21:41Z</time>
      </trkpt>
      <trkpt lat="45.60812" lon="6.95028">
        <ele>2172</ele>
        <time>2008-03-15T11:21:57Z</time>
      </trkpt>
      <trkpt lat="45.60816" lon="6.95024">
        <ele>2172</ele>
        <time>2008-03-15T11:22:10Z</time>
      </trkpt>
      <trkpt lat="45.60822" lon="6.95022">
        <ele>2174</ele>
        <time>2008-03-15T11:22:26Z</time>
      </trkpt>
      <trkpt lat="45.60828" lon="6.95021">
        <ele>2175</ele>
        <time>2008-03-15T11:22:39Z</time>
      </trkpt>
      <trkpt lat="45.60835" lon="6.9502">
        <ele>2178</ele>
        <time>2008-03-15T11:22:55Z</time>
      </trkpt>
      <trkpt lat="45.60841" lon="6.95018">
        <ele>2179</ele>
        <time>2008-03-15T11:23:11Z</time>
      </trkpt>
      <trkpt lat="45.60847" lon="6.95018">
        <ele>2181</ele>
        <time>2008-03-15T11:23:25Z</time>
      </trkpt>
      <trkpt lat="45.60856" lon="6.95016">
        <ele>2182</ele>
        <time>2008-03-15T11:23:42Z</time>
      </trkpt>
      <trkpt lat="45.60865" lon="6.95015">
        <ele>2183</ele>
        <time>2008-03-15T11:24:03Z</time>
      </trkpt>
      <trkpt lat="45.60871" lon="6.95013">
        <ele>2182</ele>
        <time>2008-03-15T11:24:17Z</time>
      </trkpt>
      <trkpt lat="45.60877" lon="6.9501">
        <ele>2186</ele>
        <time>2008-03-15T11:24:31Z</time>
      </trkpt>
      <trkpt lat="45.60882" lon="6.95008">
        <ele>2186</ele>
        <time>2008-03-15T11:24:45Z</time>
      </trkpt>
      <trkpt lat="45.60887" lon="6.95003">
        <ele>2187</ele>
        <time>2008-03-15T11:24:59Z</time>
      </trkpt>
      <trkpt lat="45.60891" lon="6.94997">
        <ele>2188</ele>
        <time>2008-03-15T11:25:12Z</time>
      </trkpt>
      <trkpt lat="45.60894" lon="6.94991">
        <ele>2188</ele>
        <time>2008-03-15T11:25:26Z</time>
      </trkpt>
      <trkpt lat="45.60896" lon="6.94982">
        <ele>2190</ele>
        <time>2008-03-15T11:25:43Z</time>
      </trkpt>
      <trkpt lat="45.60898" lon="6.94973">
        <ele>2191</ele>
        <time>2008-03-15T11:25:58Z</time>
      </trkpt>
      <trkpt lat="45.60902" lon="6.94971">
        <ele>2194</ele>
        <time>2008-03-15T11:26:12Z</time>
      </trkpt>
      <trkpt lat="45.60907" lon="6.94972">
        <ele>2196</ele>
        <time>2008-03-15T11:26:26Z</time>
      </trkpt>
      <trkpt lat="45.60913" lon="6.94976">
        <ele>2198</ele>
        <time>2008-03-15T11:26:44Z</time>
      </trkpt>
      <trkpt lat="45.60916" lon="6.94982">
        <ele>2197</ele>
        <time>2008-03-15T11:27:01Z</time>
      </trkpt>
      <trkpt lat="45.60921" lon="6.94989">
        <ele>2198</ele>
        <time>2008-03-15T11:27:18Z</time>
      </trkpt>
      <trkpt lat="45.60925" lon="6.94995">
        <ele>2202</ele>
        <time>2008-03-15T11:27:33Z</time>
      </trkpt>
      <trkpt lat="45.60932" lon="6.95001">
        <ele>2203</ele>
        <time>2008-03-15T11:27:52Z</time>
      </trkpt>
      <trkpt lat="45.60936" lon="6.95007">
        <ele>2206</ele>
        <time>2008-03-15T11:28:07Z</time>
      </trkpt>
      <trkpt lat="45.60937" lon="6.95014">
        <ele>2206</ele>
        <time>2008-03-15T11:28:19Z</time>
      </trkpt>
      <trkpt lat="45.6094" lon="6.95021">
        <ele>2206</ele>
        <time>2008-03-15T11:28:34Z</time>
      </trkpt>
      <trkpt lat="45.60939" lon="6.95026">
        <ele>2206</ele>
        <time>2008-03-15T11:28:48Z</time>
      </trkpt>
      <trkpt lat="45.60945" lon="6.95032">
        <ele>2210</ele>
        <time>2008-03-15T11:29:04Z</time>
      </trkpt>
      <trkpt lat="45.60951" lon="6.95038">
        <ele>2214</ele>
        <time>2008-03-15T11:29:21Z</time>
      </trkpt>
      <trkpt lat="45.60954" lon="6.95044">
        <ele>2216</ele>
        <time>2008-03-15T11:29:36Z</time>
      </trkpt>
      <trkpt lat="45.60958" lon="6.95053">
        <ele>2217</ele>
        <time>2008-03-15T11:29:54Z</time>
      </trkpt>
      <trkpt lat="45.60963" lon="6.95051">
        <ele>2218</ele>
        <time>2008-03-15T11:30:08Z</time>
      </trkpt>
      <trkpt lat="45.60972" lon="6.95048">
        <ele>2223</ele>
        <time>2008-03-15T11:30:38Z</time>
      </trkpt>
      <trkpt lat="45.60976" lon="6.95044">
        <ele>2224</ele>
        <time>2008-03-15T11:30:54Z</time>
      </trkpt>
      <trkpt lat="45.60982" lon="6.9504">
        <ele>2228</ele>
        <time>2008-03-15T11:31:10Z</time>
      </trkpt>
      <trkpt lat="45.60984" lon="6.95032">
        <ele>2225</ele>
        <time>2008-03-15T11:31:27Z</time>
      </trkpt>
      <trkpt lat="45.60987" lon="6.95024">
        <ele>2225</ele>
        <time>2008-03-15T11:31:44Z</time>
      </trkpt>
      <trkpt lat="45.6099" lon="6.95015">
        <ele>2228</ele>
        <time>2008-03-15T11:32:01Z</time>
      </trkpt>
      <trkpt lat="45.60993" lon="6.95008">
        <ele>2228</ele>
        <time>2008-03-15T11:32:17Z</time>
      </trkpt>
      <trkpt lat="45.60996" lon="6.95002">
        <ele>2228</ele>
        <time>2008-03-15T11:32:32Z</time>
      </trkpt>
      <trkpt lat="45.60999" lon="6.94994">
        <ele>2230</ele>
        <time>2008-03-15T11:32:48Z</time>
      </trkpt>
      <trkpt lat="45.61003" lon="6.94989">
        <ele>2231</ele>
        <time>2008-03-15T11:33:01Z</time>
      </trkpt>
      <trkpt lat="45.61007" lon="6.94982">
        <ele>2233</ele>
        <time>2008-03-15T11:33:18Z</time>
      </trkpt>
      <trkpt lat="45.61011" lon="6.94976">
        <ele>2235</ele>
        <time>2008-03-15T11:33:32Z</time>
      </trkpt>
      <trkpt lat="45.61018" lon="6.9497">
        <ele>2237</ele>
        <time>2008-03-15T11:33:51Z</time>
      </trkpt>
      <trkpt lat="45.61023" lon="6.94965">
        <ele>2238</ele>
        <time>2008-03-15T11:34:05Z</time>
      </trkpt>
      <trkpt lat="45.61027" lon="6.94961">
        <ele>2238</ele>
        <time>2008-03-15T11:34:18Z</time>
      </trkpt>
      <trkpt lat="45.61032" lon="6.94956">
        <ele>2239</ele>
        <time>2008-03-15T11:34:33Z</time>
      </trkpt>
      <trkpt lat="45.61036" lon="6.94951">
        <ele>2241</ele>
        <time>2008-03-15T11:34:48Z</time>
      </trkpt>
      <trkpt lat="45.6104" lon="6.94945">
        <ele>2244</ele>
        <time>2008-03-15T11:35:03Z</time>
      </trkpt>
      <trkpt lat="45.61043" lon="6.9494">
        <ele>2246</ele>
        <time>2008-03-15T11:35:18Z</time>
      </trkpt>
      <trkpt lat="45.61048" lon="6.94936">
        <ele>2246</ele>
        <time>2008-03-15T11:35:33Z</time>
      </trkpt>
      <trkpt lat="45.61051" lon="6.94932">
        <ele>2245</ele>
        <time>2008-03-15T11:35:50Z</time>
      </trkpt>
      <trkpt lat="45.6105" lon="6.94933">
        <ele>2244</ele>
        <time>2008-03-15T11:36:29Z</time>
      </trkpt>
      <trkpt lat="45.6105" lon="6.94933">
        <ele>2246</ele>
        <time>2008-03-15T11:37:06Z</time>
      </trkpt>
      <trkpt lat="45.61054" lon="6.94931">
        <ele>2247</ele>
        <time>2008-03-15T11:37:38Z</time>
      </trkpt>
      <trkpt lat="45.61061" lon="6.94924">
        <ele>2248</ele>
        <time>2008-03-15T11:37:59Z</time>
      </trkpt>
      <trkpt lat="45.61064" lon="6.94922">
        <ele>2250</ele>
        <time>2008-03-15T11:38:22Z</time>
      </trkpt>
      <trkpt lat="45.61063" lon="6.9492">
        <ele>2250</ele>
        <time>2008-03-15T11:38:47Z</time>
      </trkpt>
      <trkpt lat="45.61063" lon="6.9492">
        <ele>2249</ele>
        <time>2008-03-15T11:39:15Z</time>
      </trkpt>
      <trkpt lat="45.61064" lon="6.94919">
        <ele>2252</ele>
        <time>2008-03-15T11:39:55Z</time>
      </trkpt>
      <trkpt lat="45.61068" lon="6.94914">
        <ele>2251</ele>
        <time>2008-03-15T11:40:11Z</time>
      </trkpt>
      <trkpt lat="45.61075" lon="6.94908">
        <ele>2252</ele>
        <time>2008-03-15T11:40:28Z</time>
      </trkpt>
      <trkpt lat="45.61084" lon="6.94902">
        <ele>2253</ele>
        <time>2008-03-15T11:40:48Z</time>
      </trkpt>
      <trkpt lat="45.61089" lon="6.94896">
        <ele>2255</ele>
        <time>2008-03-15T11:41:02Z</time>
      </trkpt>
      <trkpt lat="45.61093" lon="6.94888">
        <ele>2256</ele>
        <time>2008-03-15T11:41:17Z</time>
      </trkpt>
      <trkpt lat="45.61097" lon="6.9488">
        <ele>2258</ele>
        <time>2008-03-15T11:41:33Z</time>
      </trkpt>
      <trkpt lat="45.61099" lon="6.9487">
        <ele>2261</ele>
        <time>2008-03-15T11:41:50Z</time>
      </trkpt>
      <trkpt lat="45.61099" lon="6.9486">
        <ele>2264</ele>
        <time>2008-03-15T11:42:07Z</time>
      </trkpt>
      <trkpt lat="45.611" lon="6.94853">
        <ele>2263</ele>
        <time>2008-03-15T11:42:22Z</time>
      </trkpt>
      <trkpt lat="45.61099" lon="6.94846">
        <ele>2266</ele>
        <time>2008-03-15T11:42:35Z</time>
      </trkpt>
      <trkpt lat="45.61097" lon="6.94837">
        <ele>2266</ele>
        <time>2008-03-15T11:42:52Z</time>
      </trkpt>
      <trkpt lat="45.61093" lon="6.9483">
        <ele>2269</ele>
        <time>2008-03-15T11:43:06Z</time>
      </trkpt>
      <trkpt lat="45.61092" lon="6.94823">
        <ele>2270</ele>
        <time>2008-03-15T11:43:23Z</time>
      </trkpt>
      <trkpt lat="45.61092" lon="6.94815">
        <ele>2272</ele>
        <time>2008-03-15T11:43:37Z</time>
      </trkpt>
      <trkpt lat="45.61094" lon="6.94806">
        <ele>2277</ele>
        <time>2008-03-15T11:43:53Z</time>
      </trkpt>
      <trkpt lat="45.61096" lon="6.94798">
        <ele>2279</ele>
        <time>2008-03-15T11:44:10Z</time>
      </trkpt>
      <trkpt lat="45.611" lon="6.94791">
        <ele>2280</ele>
        <time>2008-03-15T11:44:26Z</time>
      </trkpt>
      <trkpt lat="45.61105" lon="6.94787">
        <ele>2280</ele>
        <time>2008-03-15T11:44:40Z</time>
      </trkpt>
      <trkpt lat="45.61111" lon="6.94782">
        <ele>2284</ele>
        <time>2008-03-15T11:44:54Z</time>
      </trkpt>
      <trkpt lat="45.61115" lon="6.94782">
        <ele>2277</ele>
        <time>2008-03-15T11:45:07Z</time>
      </trkpt>
      <trkpt lat="45.61118" lon="6.94778">
        <ele>2283</ele>
        <time>2008-03-15T11:45:19Z</time>
      </trkpt>
      <trkpt lat="45.61118" lon="6.94778">
        <ele>2284</ele>
        <time>2008-03-15T11:45:51Z</time>
      </trkpt>
      <trkpt lat="45.61117" lon="6.94777">
        <ele>2284</ele>
        <time>2008-03-15T11:46:38Z</time>
      </trkpt>
      <trkpt lat="45.61117" lon="6.94778">
        <ele>2284</ele>
        <time>2008-03-15T11:47:08Z</time>
      </trkpt>
      <trkpt lat="45.6112" lon="6.94773">
        <ele>2290</ele>
        <time>2008-03-15T11:48:06Z</time>
      </trkpt>
      <trkpt lat="45.61121" lon="6.9477">
        <ele>2288</ele>
        <time>2008-03-15T11:48:29Z</time>
      </trkpt>
      <trkpt lat="45.6113" lon="6.94763">
        <ele>2288</ele>
        <time>2008-03-15T11:48:46Z</time>
      </trkpt>
      <trkpt lat="45.61138" lon="6.9476">
        <ele>2290</ele>
        <time>2008-03-15T11:49:03Z</time>
      </trkpt>
      <trkpt lat="45.61148" lon="6.94756">
        <ele>2291</ele>
        <time>2008-03-15T11:49:22Z</time>
      </trkpt>
      <trkpt lat="45.61159" lon="6.94753">
        <ele>2290</ele>
        <time>2008-03-15T11:49:40Z</time>
      </trkpt>
      <trkpt lat="45.61167" lon="6.94755">
        <ele>2292</ele>
        <time>2008-03-15T11:49:56Z</time>
      </trkpt>
      <trkpt lat="45.61173" lon="6.94754">
        <ele>2295</ele>
        <time>2008-03-15T11:50:12Z</time>
      </trkpt>
      <trkpt lat="45.61184" lon="6.94752">
        <ele>2297</ele>
        <time>2008-03-15T11:50:29Z</time>
      </trkpt>
      <trkpt lat="45.61194" lon="6.94749">
        <ele>2296</ele>
        <time>2008-03-15T11:50:51Z</time>
      </trkpt>
      <trkpt lat="45.61204" lon="6.94751">
        <ele>2294</ele>
        <time>2008-03-15T11:51:06Z</time>
      </trkpt>
      <trkpt lat="45.6121" lon="6.94748">
        <ele>2293</ele>
        <time>2008-03-15T11:51:28Z</time>
      </trkpt>
      <trkpt lat="45.61214" lon="6.94736">
        <ele>2297</ele>
        <time>2008-03-15T11:51:47Z</time>
      </trkpt>
      <trkpt lat="45.61219" lon="6.94724">
        <ele>2302</ele>
        <time>2008-03-15T11:52:05Z</time>
      </trkpt>
      <trkpt lat="45.61224" lon="6.94714">
        <ele>2303</ele>
        <time>2008-03-15T11:52:22Z</time>
      </trkpt>
      <trkpt lat="45.61229" lon="6.94706">
        <ele>2305</ele>
        <time>2008-03-15T11:52:37Z</time>
      </trkpt>
      <trkpt lat="45.61233" lon="6.94695">
        <ele>2306</ele>
        <time>2008-03-15T11:52:53Z</time>
      </trkpt>
      <trkpt lat="45.61235" lon="6.94685">
        <ele>2308</ele>
        <time>2008-03-15T11:53:10Z</time>
      </trkpt>
      <trkpt lat="45.61238" lon="6.94675">
        <ele>2309</ele>
        <time>2008-03-15T11:53:26Z</time>
      </trkpt>
      <trkpt lat="45.61241" lon="6.94668">
        <ele>2311</ele>
        <time>2008-03-15T11:53:41Z</time>
      </trkpt>
      <trkpt lat="45.61244" lon="6.9466">
        <ele>2316</ele>
        <time>2008-03-15T11:53:56Z</time>
      </trkpt>
      <trkpt lat="45.61251" lon="6.94651">
        <ele>2314</ele>
        <time>2008-03-15T11:54:13Z</time>
      </trkpt>
      <trkpt lat="45.6126" lon="6.9465">
        <ele>2311</ele>
        <time>2008-03-15T11:54:29Z</time>
      </trkpt>
      <trkpt lat="45.61265" lon="6.94646">
        <ele>2312</ele>
        <time>2008-03-15T11:54:47Z</time>
      </trkpt>
      <trkpt lat="45.61268" lon="6.9464">
        <ele>2315</ele>
        <time>2008-03-15T11:55:09Z</time>
      </trkpt>
      <trkpt lat="45.61272" lon="6.94631">
        <ele>2318</ele>
        <time>2008-03-15T11:55:26Z</time>
      </trkpt>
      <trkpt lat="45.61277" lon="6.94625">
        <ele>2318</ele>
        <time>2008-03-15T11:55:41Z</time>
      </trkpt>
      <trkpt lat="45.61282" lon="6.94619">
        <ele>2320</ele>
        <time>2008-03-15T11:55:56Z</time>
      </trkpt>
      <trkpt lat="45.6129" lon="6.94616">
        <ele>2321</ele>
        <time>2008-03-15T11:56:11Z</time>
      </trkpt>
      <trkpt lat="45.61294" lon="6.94613">
        <ele>2324</ele>
        <time>2008-03-15T11:56:23Z</time>
      </trkpt>
      <trkpt lat="45.61296" lon="6.94602">
        <ele>2326</ele>
        <time>2008-03-15T11:56:41Z</time>
      </trkpt>
      <trkpt lat="45.613" lon="6.94595">
        <ele>2327</ele>
        <time>2008-03-15T11:56:56Z</time>
      </trkpt>
      <trkpt lat="45.61302" lon="6.94584">
        <ele>2330</ele>
        <time>2008-03-15T11:57:13Z</time>
      </trkpt>
      <trkpt lat="45.61306" lon="6.94581">
        <ele>2329</ele>
        <time>2008-03-15T11:57:27Z</time>
      </trkpt>
      <trkpt lat="45.61314" lon="6.9457">
        <ele>2333</ele>
        <time>2008-03-15T11:57:57Z</time>
      </trkpt>
      <trkpt lat="45.61317" lon="6.94587">
        <ele>2335</ele>
        <time>2008-03-15T11:58:14Z</time>
      </trkpt>
      <trkpt lat="45.61322" lon="6.94596">
        <ele>2330</ele>
        <time>2008-03-15T11:59:10Z</time>
      </trkpt>
      <trkpt lat="45.61331" lon="6.946">
        <ele>2333</ele>
        <time>2008-03-15T11:59:25Z</time>
      </trkpt>
      <trkpt lat="45.61334" lon="6.9461">
        <ele>2332</ele>
        <time>2008-03-15T11:59:41Z</time>
      </trkpt>
      <trkpt lat="45.61342" lon="6.94608">
        <ele>2336</ele>
        <time>2008-03-15T11:59:55Z</time>
      </trkpt>
      <trkpt lat="45.61346" lon="6.94597">
        <ele>2341</ele>
        <time>2008-03-15T12:00:12Z</time>
      </trkpt>
      <trkpt lat="45.61348" lon="6.94587">
        <ele>2345</ele>
        <time>2008-03-15T12:00:27Z</time>
      </trkpt>
      <trkpt lat="45.61351" lon="6.94577">
        <ele>2350</ele>
        <time>2008-03-15T12:00:45Z</time>
      </trkpt>
      <trkpt lat="45.61352" lon="6.94576">
        <ele>2350</ele>
        <time>2008-03-15T12:01:03Z</time>
      </trkpt>
      <trkpt lat="45.61356" lon="6.94571">
        <ele>2352</ele>
        <time>2008-03-15T12:01:21Z</time>
      </trkpt>
      <trkpt lat="45.61361" lon="6.94569">
        <ele>2352</ele>
        <time>2008-03-15T12:01:35Z</time>
      </trkpt>
      <trkpt lat="45.6136" lon="6.94571">
        <ele>2353</ele>
        <time>2008-03-15T12:02:17Z</time>
      </trkpt>
      <trkpt lat="45.61364" lon="6.94572">
        <ele>2351</ele>
        <time>2008-03-15T12:02:46Z</time>
      </trkpt>
      <trkpt lat="45.61359" lon="6.94575">
        <ele>2354</ele>
        <time>2008-03-15T12:04:26Z</time>
      </trkpt>
      <trkpt lat="45.61358" lon="6.94573">
        <ele>2356</ele>
        <time>2008-03-15T12:10:58Z</time>
      </trkpt>
      <trkpt lat="45.61359" lon="6.94572">
        <ele>2352</ele>
        <time>2008-03-15T12:11:24Z</time>
      </trkpt>
      <trkpt lat="45.61363" lon="6.94573">
        <ele>2351</ele>
        <time>2008-03-15T12:11:57Z</time>
      </trkpt>
      <trkpt lat="45.61371" lon="6.94572">
        <ele>2354</ele>
        <time>2008-03-15T12:12:13Z</time>
      </trkpt>
      <trkpt lat="45.61376" lon="6.94567">
        <ele>2356</ele>
        <time>2008-03-15T12:12:28Z</time>
      </trkpt>
      <trkpt lat="45.61379" lon="6.94562">
        <ele>2357</ele>
        <time>2008-03-15T12:12:45Z</time>
      </trkpt>
      <trkpt lat="45.61382" lon="6.94557">
        <ele>2358</ele>
        <time>2008-03-15T12:12:59Z</time>
      </trkpt>
      <trkpt lat="45.61388" lon="6.9455">
        <ele>2358</ele>
        <time>2008-03-15T12:13:17Z</time>
      </trkpt>
      <trkpt lat="45.61396" lon="6.9454">
        <ele>2362</ele>
        <time>2008-03-15T12:13:33Z</time>
      </trkpt>
      <trkpt lat="45.61402" lon="6.94532">
        <ele>2364</ele>
        <time>2008-03-15T12:13:49Z</time>
      </trkpt>
      <trkpt lat="45.61409" lon="6.94524">
        <ele>2365</ele>
        <time>2008-03-15T12:14:07Z</time>
      </trkpt>
      <trkpt lat="45.61414" lon="6.94516">
        <ele>2368</ele>
        <time>2008-03-15T12:14:22Z</time>
      </trkpt>
      <trkpt lat="45.61418" lon="6.94507">
        <ele>2369</ele>
        <time>2008-03-15T12:14:39Z</time>
      </trkpt>
      <trkpt lat="45.61421" lon="6.94499">
        <ele>2371</ele>
        <time>2008-03-15T12:14:54Z</time>
      </trkpt>
      <trkpt lat="45.61425" lon="6.94492">
        <ele>2373</ele>
        <time>2008-03-15T12:15:10Z</time>
      </trkpt>
      <trkpt lat="45.61429" lon="6.94484">
        <ele>2375</ele>
        <time>2008-03-15T12:15:24Z</time>
      </trkpt>
      <trkpt lat="45.61435" lon="6.94475">
        <ele>2379</ele>
        <time>2008-03-15T12:15:43Z</time>
      </trkpt>
      <trkpt lat="45.6144" lon="6.94468">
        <ele>2383</ele>
        <time>2008-03-15T12:16:04Z</time>
      </trkpt>
      <trkpt lat="45.61446" lon="6.94461">
        <ele>2386</ele>
        <time>2008-03-15T12:16:23Z</time>
      </trkpt>
      <trkpt lat="45.61453" lon="6.94456">
        <ele>2389</ele>
        <time>2008-03-15T12:16:40Z</time>
      </trkpt>
      <trkpt lat="45.61462" lon="6.94445">
        <ele>2393</ele>
        <time>2008-03-15T12:17:06Z</time>
      </trkpt>
      <trkpt lat="45.61467" lon="6.94437">
        <ele>2395</ele>
        <time>2008-03-15T12:17:24Z</time>
      </trkpt>
      <trkpt lat="45.61475" lon="6.94431">
        <ele>2397</ele>
        <time>2008-03-15T12:17:42Z</time>
      </trkpt>
      <trkpt lat="45.61478" lon="6.94428">
        <ele>2399</ele>
        <time>2008-03-15T12:17:56Z</time>
      </trkpt>
      <trkpt lat="45.61485" lon="6.94423">
        <ele>2401</ele>
        <time>2008-03-15T12:18:17Z</time>
      </trkpt>
      <trkpt lat="45.61489" lon="6.94415">
        <ele>2402</ele>
        <time>2008-03-15T12:18:35Z</time>
      </trkpt>
      <trkpt lat="45.61491" lon="6.94408">
        <ele>2402</ele>
        <time>2008-03-15T12:18:54Z</time>
      </trkpt>
      <trkpt lat="45.61492" lon="6.94398">
        <ele>2403</ele>
        <time>2008-03-15T12:19:10Z</time>
      </trkpt>
      <trkpt lat="45.61494" lon="6.94389">
        <ele>2406</ele>
        <time>2008-03-15T12:19:26Z</time>
      </trkpt>
      <trkpt lat="45.61498" lon="6.94382">
        <ele>2407</ele>
        <time>2008-03-15T12:19:40Z</time>
      </trkpt>
      <trkpt lat="45.61502" lon="6.94374">
        <ele>2408</ele>
        <time>2008-03-15T12:19:57Z</time>
      </trkpt>
      <trkpt lat="45.61506" lon="6.94363">
        <ele>2412</ele>
        <time>2008-03-15T12:20:19Z</time>
      </trkpt>
      <trkpt lat="45.6151" lon="6.94353">
        <ele>2414</ele>
        <time>2008-03-15T12:20:41Z</time>
      </trkpt>
      <trkpt lat="45.61516" lon="6.94344">
        <ele>2417</ele>
        <time>2008-03-15T12:21:03Z</time>
      </trkpt>
      <trkpt lat="45.6152" lon="6.94346">
        <ele>2419</ele>
        <time>2008-03-15T12:21:18Z</time>
      </trkpt>
      <trkpt lat="45.61527" lon="6.94349">
        <ele>2422</ele>
        <time>2008-03-15T12:21:36Z</time>
      </trkpt>
      <trkpt lat="45.61534" lon="6.94355">
        <ele>2423</ele>
        <time>2008-03-15T12:21:56Z</time>
      </trkpt>
      <trkpt lat="45.61539" lon="6.94361">
        <ele>2424</ele>
        <time>2008-03-15T12:22:10Z</time>
      </trkpt>
      <trkpt lat="45.61547" lon="6.94367">
        <ele>2426</ele>
        <time>2008-03-15T12:22:27Z</time>
      </trkpt>
      <trkpt lat="45.61554" lon="6.94372">
        <ele>2428</ele>
        <time>2008-03-15T12:22:44Z</time>
      </trkpt>
      <trkpt lat="45.6156" lon="6.9437">
        <ele>2430</ele>
        <time>2008-03-15T12:23:01Z</time>
      </trkpt>
      <trkpt lat="45.61552" lon="6.94354">
        <ele>2436</ele>
        <time>2008-03-15T12:49:37Z</time>
      </trkpt>
      <trkpt lat="45.61548" lon="6.94309">
        <ele>2428</ele>
        <time>2008-03-15T12:49:46Z</time>
      </trkpt>
      <trkpt lat="45.61547" lon="6.9427">
        <ele>2422</ele>
        <time>2008-03-15T12:49:52Z</time>
      </trkpt>
      <trkpt lat="45.61556" lon="6.94248">
        <ele>2416</ele>
        <time>2008-03-15T12:50:00Z</time>
      </trkpt>
      <trkpt lat="45.61556" lon="6.94247">
        <ele>2411</ele>
        <time>2008-03-15T12:50:13Z</time>
      </trkpt>
      <trkpt lat="45.61556" lon="6.94247">
        <ele>2411</ele>
        <time>2008-03-15T12:50:16Z</time>
      </trkpt>
      <trkpt lat="45.61547" lon="6.94205">
        <ele>2408</ele>
        <time>2008-03-15T12:50:23Z</time>
      </trkpt>
      <trkpt lat="45.61559" lon="6.94196">
        <ele>2395</ele>
        <time>2008-03-15T12:52:18Z</time>
      </trkpt>
      <trkpt lat="45.61572" lon="6.94197">
        <ele>2395</ele>
        <time>2008-03-15T12:52:24Z</time>
      </trkpt>
      <trkpt lat="45.61584" lon="6.9422">
        <ele>2389</ele>
        <time>2008-03-15T12:52:36Z</time>
      </trkpt>
    </trkseg>
  </trk>
</gpx>